Time;durP1;ratioP1;P1;durP2;ratioP2;P2;SDS_P1;SDS_P2;PMS_P1;PMS_P2;Temp;Humidity;BMP_temperature;BMP_pressure;BME280_temperature;BME280_humidity;BME280_pressure;Samples;Min_cycle;Max_cycle;Signal;HPM_P1;HPM_P2
2023/12/31 00:00:44;;;;;;;0.90;0.60;;;8.20;99.90;;;;;;4966626;28;20027;-81
2023/12/31 00:03:10;;;;;;;1.92;0.90;;;8.20;99.90;;;;;;4970119;28;20038;-82
2023/12/31 00:05:35;;;;;;;0.93;0.60;;;8.20;99.90;;;;;;4956349;28;20035;-82
2023/12/31 00:08:01;;;;;;;0.73;0.43;;;8.30;99.90;;;;;;4970129;28;20046;-81
2023/12/31 00:10:26;;;;;;;1.75;0.75;;;8.20;99.90;;;;;;4953539;28;20026;-83
2023/12/31 00:12:52;;;;;;;2.13;0.95;;;8.20;99.90;;;;;;4938731;28;20030;-82
2023/12/31 00:15:18;;;;;;;1.73;0.73;;;8.20;99.90;;;;;;4954455;28;20077;-82
2023/12/31 00:17:43;;;;;;;1.08;0.80;;;8.10;99.90;;;;;;4941656;28;20038;-84
2023/12/31 00:20:09;;;;;;;2.60;1.00;;;8.10;99.90;;;;;;4960468;28;20049;-83
2023/12/31 00:22:35;;;;;;;2.15;0.95;;;8.10;99.90;;;;;;4982558;28;20035;-81
2023/12/31 00:25:01;;;;;;;1.33;0.60;;;8.10;99.90;;;;;;4971097;28;20392;-82
2023/12/31 00:27:26;;;;;;;0.90;0.70;;;8.10;99.90;;;;;;4957754;28;20361;-82
2023/12/31 00:29:52;;;;;;;1.50;0.93;;;8.10;99.90;;;;;;4951593;28;20023;-82
2023/12/31 00:32:17;;;;;;;4.15;0.93;;;8.00;99.90;;;;;;4952343;28;20564;-82
2023/12/31 00:34:43;;;;;;;0.77;0.70;;;8.10;99.90;;;;;;4953272;28;20041;-82
2023/12/31 00:37:09;;;;;;;1.60;1.00;;;8.10;99.90;;;;;;4966778;28;20112;-82
2023/12/31 00:39:34;;;;;;;3.05;1.08;;;8.10;99.90;;;;;;4967181;28;20050;-81
2023/12/31 00:42:00;;;;;;;2.55;1.15;;;8.00;99.90;;;;;;4950886;28;20049;-82
2023/12/31 00:44:25;;;;;;;3.50;0.68;;;7.90;99.90;;;;;;4941090;28;20046;-82
2023/12/31 00:46:51;;;;;;;3.33;1.10;;;8.10;99.90;;;;;;4995946;28;20031;-83
2023/12/31 00:49:17;;;;;;;2.13;1.10;;;8.00;99.90;;;;;;4953605;28;20027;-82
2023/12/31 00:51:43;;;;;;;3.97;1.38;;;8.00;99.90;;;;;;4952597;28;20483;-82
2023/12/31 00:54:09;;;;;;;2.45;1.35;;;8.00;99.90;;;;;;4967502;28;20143;-81
2023/12/31 00:56:35;;;;;;;2.60;1.25;;;8.00;99.90;;;;;;4953822;28;20074;-81
2023/12/31 00:59:02;;;;;;;2.50;1.20;;;8.00;99.90;;;;;;4951572;28;20034;-82
2023/12/31 01:01:27;;;;;;;3.47;1.65;;;7.90;99.90;;;;;;4953191;28;20145;-83
2023/12/31 01:03:53;;;;;;;3.05;1.40;;;7.90;99.90;;;;;;4964094;28;20173;-83
2023/12/31 01:06:19;;;;;;;3.70;1.23;;;7.90;99.90;;;;;;4936354;28;20046;-83
2023/12/31 01:08:44;;;;;;;1.75;1.33;;;7.90;99.90;;;;;;4967620;28;20027;-82
2023/12/31 01:11:10;;;;;;;4.03;1.15;;;7.90;99.90;;;;;;4953212;28;20041;-83
2023/12/31 01:13:35;;;;;;;1.92;1.00;;;8.00;99.90;;;;;;4952639;28;20042;-83
2023/12/31 01:16:01;;;;;;;2.78;1.67;;;8.00;99.90;;;;;;4957268;28;20045;-84
2023/12/31 01:18:26;;;;;;;1.85;1.33;;;7.90;99.90;;;;;;4951447;28;20030;-83
2023/12/31 01:20:53;;;;;;;1.70;1.13;;;7.90;99.90;;;;;;4946252;28;20037;-82
2023/12/31 01:23:19;;;;;;;1.77;1.30;;;7.90;99.90;;;;;;4967370;28;20050;-83
2023/12/31 01:25:44;;;;;;;2.78;1.52;;;8.00;99.90;;;;;;4969897;28;20130;-83
2023/12/31 01:28:10;;;;;;;5.63;1.80;;;7.90;99.90;;;;;;4968986;28;20018;-84
2023/12/31 01:30:37;;;;;;;3.75;2.03;;;7.90;99.90;;;;;;4964219;28;20041;-84
2023/12/31 01:33:03;;;;;;;3.35;1.20;;;7.90;99.90;;;;;;4952246;28;20621;-78
2023/12/31 01:35:29;;;;;;;5.57;1.40;;;7.90;99.90;;;;;;4950238;28;20034;-78
2023/12/31 01:37:54;;;;;;;2.30;1.23;;;7.90;99.90;;;;;;4951726;28;20087;-79
2023/12/31 01:40:20;;;;;;;3.47;1.50;;;7.90;99.90;;;;;;4954104;28;20109;-78
2023/12/31 01:42:46;;;;;;;4.68;2.22;;;7.80;99.90;;;;;;4962572;28;20034;-79
2023/12/31 01:45:11;;;;;;;2.88;1.35;;;7.90;99.90;;;;;;4946189;28;20400;-79
2023/12/31 01:47:37;;;;;;;3.25;1.20;;;7.90;99.90;;;;;;4963404;28;20124;-79
2023/12/31 01:50:06;;;;;;;1.95;1.23;;;7.80;99.90;;;;;;4941374;28;20114;-78
2023/12/31 01:52:32;;;;;;;3.38;1.65;;;7.90;99.90;;;;;;4960246;28;20133;-78
2023/12/31 01:55:00;;;;;;;3.08;1.23;;;7.90;99.90;;;;;;4961030;28;20151;-78
2023/12/31 01:57:27;;;;;;;2.00;1.20;;;8.00;99.90;;;;;;4950744;28;20113;-78
2023/12/31 01:59:53;;;;;;;1.80;1.33;;;8.00;99.90;;;;;;4950972;28;20031;-78
2023/12/31 02:02:19;;;;;;;2.72;1.45;;;8.00;99.90;;;;;;4957217;28;20030;-78
2023/12/31 02:04:45;;;;;;;1.35;1.00;;;8.00;99.90;;;;;;4951133;28;20030;-78
2023/12/31 02:07:11;;;;;;;4.22;1.55;;;8.10;99.90;;;;;;4969014;28;20046;-77
2023/12/31 02:09:36;;;;;;;1.75;0.80;;;8.10;99.90;;;;;;4950208;28;20092;-78
2023/12/31 02:12:02;;;;;;;1.50;0.93;;;8.10;99.90;;;;;;4957347;28;20030;-78
2023/12/31 02:14:28;;;;;;;3.10;1.35;;;8.10;99.90;;;;;;4970021;28;20081;-78
2023/12/31 02:16:59;;;;;;;1.40;0.90;;;8.10;99.90;;;;;;4935225;28;20073;-78
2023/12/31 02:19:25;;;;;;;1.50;1.27;;;8.20;99.90;;;;;;4952311;28;20064;-78
2023/12/31 02:21:50;;;;;;;7.05;1.55;;;8.30;99.90;;;;;;4968258;28;20030;-78
2023/12/31 02:24:16;;;;;;;0.95;0.90;;;8.20;99.90;;;;;;4951819;28;20037;-78
2023/12/31 02:26:42;;;;;;;2.30;0.80;;;8.20;99.90;;;;;;4953908;28;20038;-77
2023/12/31 02:29:07;;;;;;;2.38;1.25;;;8.20;99.90;;;;;;4933711;28;20034;-77
2023/12/31 02:31:34;;;;;;;2.28;1.45;;;8.20;99.90;;;;;;4980509;28;20125;-78
2023/12/31 02:34:00;;;;;;;2.00;0.93;;;8.20;99.90;;;;;;4973310;28;20038;-80
2023/12/31 02:36:26;;;;;;;2.13;1.50;;;8.20;99.90;;;;;;4952390;28;20042;-78
2023/12/31 02:38:51;;;;;;;2.13;1.27;;;8.20;99.90;;;;;;4935505;28;20034;-79
2023/12/31 02:41:17;;;;;;;1.35;0.98;;;8.30;99.90;;;;;;4952246;28;20030;-80
2023/12/31 02:43:42;;;;;;;3.15;1.20;;;8.20;99.90;;;;;;4980493;28;20672;-83
2023/12/31 02:46:08;;;;;;;2.33;1.35;;;8.20;99.90;;;;;;4952174;28;20482;-84
2023/12/31 02:48:33;;;;;;;3.60;1.33;;;8.20;99.90;;;;;;4952252;28;20037;-84
2023/12/31 02:50:59;;;;;;;1.30;1.13;;;8.20;99.90;;;;;;4953008;28;20023;-83
2023/12/31 02:53:25;;;;;;;2.75;1.40;;;8.20;99.90;;;;;;4935804;28;20093;-83
2023/12/31 02:55:50;;;;;;;1.80;1.08;;;8.20;99.90;;;;;;4954114;28;20044;-83
2023/12/31 02:58:16;;;;;;;1.52;1.10;;;8.20;99.90;;;;;;4955181;28;20034;-83
2023/12/31 03:00:41;;;;;;;2.10;1.70;;;8.10;99.90;;;;;;4954419;28;20433;-83
2023/12/31 03:03:07;;;;;;;2.38;1.45;;;8.10;99.90;;;;;;4950229;28;20118;-84
2023/12/31 03:05:36;;;;;;;1.60;1.33;;;8.10;99.90;;;;;;4953040;28;20406;-82
2023/12/31 03:08:01;;;;;;;3.72;1.40;;;8.20;99.90;;;;;;4951391;28;20030;-83
2023/12/31 03:10:27;;;;;;;2.50;1.83;;;8.10;99.90;;;;;;4952676;28;20030;-83
2023/12/31 03:12:53;;;;;;;1.92;1.20;;;8.10;99.90;;;;;;4968977;28;20369;-82
2023/12/31 03:15:22;;;;;;;1.58;1.17;;;8.10;99.90;;;;;;4983428;28;20041;-84
2023/12/31 03:17:48;;;;;;;3.38;1.58;;;8.10;99.90;;;;;;4936339;28;20026;-83
2023/12/31 03:20:13;;;;;;;3.75;1.52;;;8.10;99.90;;;;;;4965338;28;20093;-83
2023/12/31 03:22:39;;;;;;;1.83;1.40;;;8.20;99.90;;;;;;4953420;28;20035;-84
2023/12/31 03:25:05;;;;;;;4.05;1.30;;;8.10;99.90;;;;;;4949743;28;20049;-82
2023/12/31 03:27:31;;;;;;;3.20;1.55;;;8.10;99.90;;;;;;4966568;28;20130;-85
2023/12/31 03:29:59;;;;;;;1.33;1.10;;;8.10;99.90;;;;;;4949157;28;20031;-84
2023/12/31 03:32:24;;;;;;;6.32;2.28;;;8.10;99.90;;;;;;4966084;28;20077;-83
2023/12/31 03:34:53;;;;;;;3.28;1.52;;;8.10;99.90;;;;;;4954916;28;20492;-83
2023/12/31 03:37:18;;;;;;;1.63;1.23;;;8.10;99.90;;;;;;4962608;28;20060;-83
2023/12/31 03:39:44;;;;;;;2.90;1.75;;;8.10;99.90;;;;;;4952469;28;20062;-84
2023/12/31 03:42:10;;;;;;;1.05;0.88;;;8.10;99.90;;;;;;4980704;28;20094;-83
2023/12/31 03:44:35;;;;;;;1.92;1.17;;;8.10;99.90;;;;;;4953170;28;20046;-83
2023/12/31 03:47:01;;;;;;;3.78;1.85;;;8.10;99.90;;;;;;4936540;28;20037;-83
2023/12/31 03:49:26;;;;;;;2.42;1.50;;;8.10;99.90;;;;;;4954482;28;20404;-83
2023/12/31 03:51:52;;;;;;;1.73;1.20;;;8.10;99.90;;;;;;4951476;28;20042;-84
2023/12/31 03:54:17;;;;;;;3.00;1.48;;;8.20;99.90;;;;;;4957049;28;20081;-84
2023/12/31 03:56:43;;;;;;;1.80;1.48;;;8.20;99.90;;;;;;4949092;28;20026;-84
2023/12/31 04:02:31;;;;;;;2.10;1.65;;;8.20;99.90;;;;;;4968949;28;20085;-83
2023/12/31 04:04:57;;;;;;;2.35;1.58;;;8.20;99.90;;;;;;4946478;28;20047;-83
2023/12/31 04:07:22;;;;;;;4.05;1.20;;;8.20;99.90;;;;;;4958130;28;20415;-84
2023/12/31 04:09:48;;;;;;;2.75;1.95;;;8.30;99.90;;;;;;4949596;28;20106;-83
2023/12/31 04:12:13;;;;;;;6.35;2.72;;;8.30;99.90;;;;;;4983991;28;20436;-83
2023/12/31 04:14:39;;;;;;;3.63;1.50;;;8.30;99.90;;;;;;4951127;28;20587;-83
2023/12/31 04:17:04;;;;;;;2.80;1.58;;;8.30;99.90;;;;;;4963365;28;20134;-84
2023/12/31 04:19:30;;;;;;;4.13;2.13;;;8.20;99.90;;;;;;4965476;28;20502;-83
2023/12/31 04:21:56;;;;;;;3.20;1.63;;;8.30;99.90;;;;;;4947757;28;20551;-83
2023/12/31 04:24:24;;;;;;;2.05;1.50;;;8.30;99.90;;;;;;4963008;28;20046;-85
2023/12/31 04:26:50;;;;;;;2.20;1.52;;;8.30;99.90;;;;;;4964952;28;20039;-83
2023/12/31 04:29:15;;;;;;;3.10;1.90;;;8.40;99.90;;;;;;4951529;28;20049;-83
2023/12/31 04:31:46;;;;;;;1.77;1.27;;;8.30;99.90;;;;;;4966896;28;20138;-84
2023/12/31 04:34:12;;;;;;;11.93;1.58;;;8.40;99.90;;;;;;4965555;28;20451;-83
2023/12/31 04:36:45;;;;;;;2.42;1.65;;;8.40;99.90;;;;;;4954334;28;20071;-82
2023/12/31 04:39:11;;;;;;;5.80;1.50;;;8.40;99.90;;;;;;4963111;28;20033;-82
2023/12/31 04:41:37;;;;;;;1.25;1.15;;;8.30;99.90;;;;;;4946213;28;20054;-83
2023/12/31 04:44:02;;;;;;;1.95;1.58;;;8.40;99.90;;;;;;4953055;28;20031;-83
2023/12/31 04:46:28;;;;;;;4.30;1.40;;;8.40;99.90;;;;;;4939038;28;20070;-84
2023/12/31 04:48:53;;;;;;;2.08;1.70;;;8.40;99.90;;;;;;4932607;28;20042;-84
2023/12/31 04:51:28;;;;;;;2.75;1.63;;;8.40;99.90;;;;;;4969999;28;20066;-85
2023/12/31 04:53:54;;;;;;;3.03;1.07;;;8.40;99.90;;;;;;4947275;28;20399;-84
2023/12/31 04:56:25;;;;;;;1.80;1.30;;;8.40;99.90;;;;;;4965838;28;20110;-81
2023/12/31 04:58:52;;;;;;;4.60;2.67;;;8.50;99.90;;;;;;4966612;28;20034;-83
2023/12/31 05:01:17;;;;;;;3.17;1.60;;;8.40;99.90;;;;;;4948455;28;20038;-82
2023/12/31 05:03:45;;;;;;;2.15;1.33;;;8.50;99.90;;;;;;4964609;28;20453;-83
2023/12/31 05:06:11;;;;;;;2.38;1.25;;;8.50;99.90;;;;;;4965088;28;20215;-79
2023/12/31 05:08:36;;;;;;;1.55;1.30;;;8.50;99.90;;;;;;4961783;28;20559;-80
2023/12/31 05:11:02;;;;;;;1.60;1.33;;;8.60;99.90;;;;;;4949050;28;20481;-79
2023/12/31 05:13:27;;;;;;;2.13;1.30;;;8.50;99.90;;;;;;4952141;28;20034;-79
2023/12/31 05:15:53;;;;;;;2.40;1.48;;;8.50;99.90;;;;;;4946808;28;20070;-79
2023/12/31 05:18:19;;;;;;;4.07;1.38;;;8.50;99.90;;;;;;4977402;28;20115;-78
2023/12/31 05:20:44;;;;;;;1.77;0.85;;;8.50;99.90;;;;;;4949039;28;20038;-79
2023/12/31 05:23:10;;;;;;;1.33;0.90;;;8.50;99.90;;;;;;4947516;28;20541;-79
2023/12/31 05:25:35;;;;;;;1.73;1.00;;;8.50;99.90;;;;;;4953287;28;20081;-79
2023/12/31 05:28:01;;;;;;;1.98;1.23;;;8.50;99.90;;;;;;4964008;28;20751;-79
2023/12/31 05:30:27;;;;;;;2.80;1.40;;;8.50;99.90;;;;;;4949297;28;20382;-77
2023/12/31 05:32:52;;;;;;;1.85;0.90;;;8.60;99.90;;;;;;4947848;28;20113;-81
2023/12/31 05:35:18;;;;;;;1.73;1.00;;;8.50;99.90;;;;;;4943340;28;20034;-81
2023/12/31 05:37:43;;;;;;;1.85;0.90;;;8.60;99.90;;;;;;4967947;28;20038;-82
2023/12/31 05:40:10;;;;;;;1.52;0.82;;;8.60;99.90;;;;;;4932337;28;20038;-81
2023/12/31 05:42:35;;;;;;;1.42;0.85;;;8.60;99.90;;;;;;4946787;28;20038;-81
2023/12/31 05:45:01;;;;;;;1.10;0.90;;;8.60;99.90;;;;;;4947724;28;20042;-81
2023/12/31 05:47:26;;;;;;;1.08;0.60;;;8.50;99.90;;;;;;4965331;28;20061;-82
2023/12/31 05:49:52;;;;;;;2.10;1.35;;;8.60;99.90;;;;;;4951109;28;20535;-81
2023/12/31 05:52:17;;;;;;;5.57;1.63;;;8.50;99.90;;;;;;4955406;28;20046;-82
2023/12/31 05:54:43;;;;;;;4.72;1.25;;;8.60;99.90;;;;;;4929880;28;20388;-81
2023/12/31 05:57:08;;;;;;;1.80;1.35;;;8.60;99.90;;;;;;4952060;28;20034;-82
2023/12/31 05:59:40;;;;;;;4.55;1.40;;;8.60;99.90;;;;;;4949533;28;20034;-82
2023/12/31 06:02:07;;;;;;;1.08;0.88;;;8.60;99.90;;;;;;4949582;28;20428;-82
2023/12/31 06:04:34;;;;;;;1.75;1.10;;;8.70;99.90;;;;;;4951533;28;20166;-83
2023/12/31 06:07:00;;;;;;;3.50;0.93;;;8.70;99.90;;;;;;4938778;28;20038;-81
2023/12/31 06:09:28;;;;;;;3.53;1.25;;;8.70;99.90;;;;;;4950506;28;20049;-82
2023/12/31 06:11:54;;;;;;;1.40;1.20;;;8.90;99.90;;;;;;4962239;28;20032;-84
2023/12/31 06:14:20;;;;;;;1.83;1.50;;;8.70;99.90;;;;;;4932331;28;20037;-82
2023/12/31 06:16:45;;;;;;;2.45;1.77;;;8.70;99.90;;;;;;4949313;28;20030;-79
2023/12/31 06:19:11;;;;;;;3.17;1.50;;;8.80;99.90;;;;;;4949798;28;21344;-79
2023/12/31 06:21:36;;;;;;;5.22;1.50;;;8.70;99.90;;;;;;4967201;28;20042;-78
2023/12/31 06:24:02;;;;;;;2.85;1.42;;;8.70;99.90;;;;;;4940246;28;20034;-79
2023/12/31 06:26:28;;;;;;;1.90;1.48;;;8.70;99.90;;;;;;4948995;28;20035;-78
2023/12/31 06:28:53;;;;;;;1.92;1.55;;;8.70;99.90;;;;;;4959507;28;20062;-80
2023/12/31 06:31:19;;;;;;;2.35;1.73;;;8.70;99.90;;;;;;4968457;28;20058;-79
2023/12/31 06:33:45;;;;;;;2.50;1.40;;;8.70;99.90;;;;;;4960217;28;20110;-79
2023/12/31 06:36:10;;;;;;;1.88;1.17;;;8.70;99.90;;;;;;4963832;28;20034;-79
2023/12/31 06:38:37;;;;;;;1.40;0.90;;;8.70;99.90;;;;;;4936715;28;20118;-79
2023/12/31 06:41:07;;;;;;;3.90;1.60;;;8.80;99.90;;;;;;4962112;28;20093;-79
2023/12/31 06:43:33;;;;;;;1.65;1.17;;;8.80;99.90;;;;;;4940265;28;20042;-79
2023/12/31 06:45:58;;;;;;;1.85;1.20;;;8.70;99.90;;;;;;4936140;28;20361;-79
2023/12/31 06:48:24;;;;;;;1.70;1.48;;;8.70;99.90;;;;;;4965995;28;20081;-79
2023/12/31 06:50:50;;;;;;;1.75;1.17;;;8.80;99.90;;;;;;4935543;28;20041;-79
2023/12/31 06:53:15;;;;;;;3.53;1.65;;;8.80;99.90;;;;;;4969210;28;20040;-79
2023/12/31 06:55:41;;;;;;;2.25;1.60;;;8.70;99.90;;;;;;4969396;28;20053;-79
2023/12/31 06:58:06;;;;;;;2.20;1.23;;;8.80;99.90;;;;;;4953900;28;20452;-79
2023/12/31 07:00:32;;;;;;;1.95;1.35;;;8.70;99.90;;;;;;4965933;28;20444;-79
2023/12/31 07:02:57;;;;;;;1.90;1.27;;;8.70;99.90;;;;;;4952610;28;20027;-78
2023/12/31 07:05:23;;;;;;;2.25;1.30;;;8.80;99.90;;;;;;4969411;28;20455;-78
2023/12/31 07:07:50;;;;;;;3.22;1.48;;;8.70;99.90;;;;;;4950584;28;20030;-79
2023/12/31 07:10:15;;;;;;;4.55;1.90;;;8.70;99.90;;;;;;4970179;28;20030;-79
2023/12/31 07:12:41;;;;;;;4.00;1.63;;;8.80;99.90;;;;;;4953196;28;20066;-81
2023/12/31 07:15:09;;;;;;;3.60;1.60;;;8.80;99.90;;;;;;4953495;28;20038;-81
2023/12/31 07:17:35;;;;;;;4.38;1.63;;;8.80;99.90;;;;;;4967784;28;20034;-80
2023/12/31 07:20:02;;;;;;;2.20;1.38;;;8.80;99.90;;;;;;4949081;28;20062;-81
2023/12/31 07:22:28;;;;;;;2.90;1.55;;;8.80;99.90;;;;;;4953697;28;20378;-80
2023/12/31 07:24:54;;;;;;;1.85;1.30;;;8.90;99.90;;;;;;4949880;28;20042;-80
2023/12/31 07:27:19;;;;;;;2.72;1.60;;;8.90;99.90;;;;;;4953620;28;20165;-80
2023/12/31 07:29:45;;;;;;;1.50;1.13;;;8.90;99.90;;;;;;4952886;28;20053;-80
2023/12/31 07:32:11;;;;;;;3.08;1.73;;;8.90;99.90;;;;;;4984573;28;20034;-81
2023/12/31 07:34:36;;;;;;;2.08;1.50;;;8.90;99.90;;;;;;4937883;28;20038;-81
2023/12/31 07:37:02;;;;;;;1.98;1.05;;;8.90;99.90;;;;;;4951077;28;20101;-80
2023/12/31 07:39:28;;;;;;;2.97;1.15;;;9.00;99.90;;;;;;4945555;28;20033;-81
2023/12/31 07:41:53;;;;;;;4.10;1.77;;;9.00;99.90;;;;;;4950052;28;20443;-81
2023/12/31 07:44:19;;;;;;;1.73;1.40;;;9.00;99.90;;;;;;4951283;28;20035;-81
2023/12/31 07:46:45;;;;;;;2.80;1.58;;;9.10;99.90;;;;;;4933952;28;20031;-81
2023/12/31 07:49:11;;;;;;;3.88;1.50;;;9.10;99.90;;;;;;4963210;28;20391;-81
2023/12/31 07:51:37;;;;;;;3.78;1.30;;;9.00;99.90;;;;;;4966481;28;20042;-81
2023/12/31 07:54:02;;;;;;;1.67;1.27;;;9.00;99.90;;;;;;4967069;28;20031;-81
2023/12/31 07:56:28;;;;;;;3.40;1.13;;;9.00;99.90;;;;;;4950112;28;20030;-80
2023/12/31 07:58:53;;;;;;;2.22;1.27;;;9.10;99.90;;;;;;4948830;28;20105;-80
2023/12/31 08:01:19;;;;;;;2.22;1.30;;;9.10;99.90;;;;;;4955846;28;20097;-81
2023/12/31 08:03:45;;;;;;;1.73;1.10;;;9.00;99.90;;;;;;4950509;28;20432;-81
2023/12/31 08:06:10;;;;;;;1.63;1.15;;;9.10;99.90;;;;;;4961308;28;20078;-81
2023/12/31 08:08:36;;;;;;;1.98;1.40;;;9.00;99.90;;;;;;4965238;28;20057;-81
2023/12/31 08:11:02;;;;;;;3.97;1.15;;;9.00;99.90;;;;;;4950351;28;20035;-81
2023/12/31 08:13:28;;;;;;;2.08;1.27;;;9.00;99.90;;;;;;4952199;28;20866;-80
2023/12/31 08:15:54;;;;;;;2.33;1.45;;;9.00;99.90;;;;;;4967384;28;20045;-81
2023/12/31 08:18:20;;;;;;;2.42;0.98;;;9.00;99.90;;;;;;4936408;28;20500;-81
2023/12/31 08:20:46;;;;;;;1.80;1.52;;;9.00;99.90;;;;;;4946472;28;20068;-81
2023/12/31 08:23:11;;;;;;;2.72;1.50;;;8.90;99.90;;;;;;4950897;28;20498;-80
2023/12/31 08:25:37;;;;;;;3.80;1.40;;;9.00;99.90;;;;;;4951465;28;20140;-81
2023/12/31 08:28:03;;;;;;;3.03;1.58;;;9.00;99.90;;;;;;4936979;28;20027;-81
2023/12/31 08:30:28;;;;;;;2.55;1.50;;;9.00;99.90;;;;;;4951752;28;20505;-81
2023/12/31 08:32:55;;;;;;;6.75;2.10;;;9.00;99.90;;;;;;4966683;28;20030;-81
2023/12/31 08:35:22;;;;;;;2.63;1.50;;;9.00;99.90;;;;;;4969148;28;20030;-81
2023/12/31 08:37:48;;;;;;;2.22;1.15;;;9.10;99.90;;;;;;4965494;28;20074;-81
2023/12/31 08:40:14;;;;;;;2.85;1.42;;;9.10;99.90;;;;;;4967330;28;20081;-81
2023/12/31 08:42:40;;;;;;;3.88;1.58;;;9.10;99.90;;;;;;4970274;28;20046;-81
2023/12/31 08:45:10;;;;;;;2.05;0.88;;;9.20;99.90;;;;;;4949514;28;20046;-81
2023/12/31 08:47:36;;;;;;;1.45;1.13;;;9.20;99.90;;;;;;4950764;28;20093;-81
2023/12/31 08:50:07;;;;;;;1.77;1.30;;;9.20;99.90;;;;;;4952817;28;20125;-81
2023/12/31 08:52:34;;;;;;;1.63;1.15;;;9.20;99.90;;;;;;4941230;28;20073;-80
2023/12/31 08:55:00;;;;;;;1.80;1.10;;;9.20;99.90;;;;;;4948568;28;20045;-80
2023/12/31 08:57:29;;;;;;;1.75;1.38;;;9.30;99.90;;;;;;4981124;28;20041;-80
2023/12/31 08:59:55;;;;;;;2.53;1.88;;;9.30;99.90;;;;;;4933517;28;20037;-81
2023/12/31 09:02:21;;;;;;;2.47;1.42;;;9.50;99.90;;;;;;4965773;28;20393;-81
2023/12/31 09:04:46;;;;;;;1.92;1.30;;;9.40;99.90;;;;;;4952271;28;20035;-80
2023/12/31 09:07:12;;;;;;;2.63;1.55;;;9.50;99.90;;;;;;4947300;28;20049;-81
2023/12/31 09:09:42;;;;;;;2.90;1.45;;;9.40;99.90;;;;;;4935455;28;20126;-81
2023/12/31 09:12:07;;;;;;;3.33;1.40;;;9.50;99.90;;;;;;4953278;28;20436;-81
2023/12/31 09:14:33;;;;;;;1.80;1.23;;;9.40;99.90;;;;;;4951561;28;20046;-81
2023/12/31 09:16:58;;;;;;;2.03;1.42;;;9.50;99.90;;;;;;4953275;28;20054;-79
2023/12/31 09:19:24;;;;;;;1.92;1.40;;;9.40;99.90;;;;;;4951329;28;20118;-79
2023/12/31 09:21:49;;;;;;;1.85;1.30;;;9.50;99.90;;;;;;4947541;28;20038;-79
2023/12/31 09:24:15;;;;;;;1.77;1.30;;;9.40;99.90;;;;;;4963968;28;20054;-79
2023/12/31 09:26:40;;;;;;;1.75;1.05;;;9.40;99.90;;;;;;4950324;28;20041;-79
2023/12/31 09:29:06;;;;;;;2.17;1.83;;;9.50;99.90;;;;;;4936676;28;20031;-79
2023/12/31 09:31:33;;;;;;;3.30;2.03;;;9.50;99.90;;;;;;4966973;28;20151;-79
2023/12/31 09:33:59;;;;;;;2.08;1.52;;;9.50;99.90;;;;;;4950111;28;21101;-79
2023/12/31 09:36:26;;;;;;;1.20;1.00;;;9.50;99.90;;;;;;4952075;28;20114;-82
2023/12/31 09:38:54;;;;;;;2.90;1.25;;;9.60;99.90;;;;;;4941235;28;21174;-81
2023/12/31 09:41:23;;;;;;;2.83;1.90;;;9.60;99.90;;;;;;4955236;28;20506;-82
2023/12/31 09:43:53;;;;;;;2.85;2.00;;;9.50;99.90;;;;;;4949883;28;20573;-81
2023/12/31 09:46:20;;;;;;;2.75;1.23;;;9.70;99.90;;;;;;4930449;28;20026;-79
2023/12/31 09:48:53;;;;;;;4.70;1.80;;;9.70;99.90;;;;;;4961554;28;20045;-79
2023/12/31 09:51:19;;;;;;;2.38;1.50;;;9.70;99.90;;;;;;4964739;28;20058;-79
2023/12/31 09:53:45;;;;;;;4.97;2.08;;;9.70;99.90;;;;;;4947404;28;20097;-79
2023/12/31 09:56:11;;;;;;;3.85;1.88;;;9.80;99.90;;;;;;4950389;28;20029;-79
2023/12/31 09:58:38;;;;;;;4.75;1.75;;;9.80;99.90;;;;;;4950903;28;20058;-78
2023/12/31 10:01:04;;;;;;;2.47;1.35;;;9.90;99.90;;;;;;4949191;28;20042;-80
2023/12/31 10:03:30;;;;;;;2.78;1.60;;;9.90;99.90;;;;;;4965450;28;21048;-80
2023/12/31 10:05:58;;;;;;;1.65;1.27;;;9.90;99.90;;;;;;4949704;28;20030;-79
2023/12/31 10:08:23;;;;;;;5.43;1.80;;;9.90;99.90;;;;;;4994933;28;20031;-79
2023/12/31 10:10:50;;;;;;;2.30;1.65;;;10.00;99.90;;;;;;4948792;28;20538;-78
2023/12/31 10:13:16;;;;;;;3.72;1.77;;;10.00;99.90;;;;;;4933204;28;20468;-78
2023/12/31 10:15:42;;;;;;;3.05;2.45;;;9.90;99.90;;;;;;4946156;28;20038;-78
2023/12/31 10:18:08;;;;;;;2.30;1.95;;;10.00;99.90;;;;;;4965540;28;20038;-78
2023/12/31 10:20:37;;;;;;;4.18;1.75;;;10.10;99.90;;;;;;4968268;28;20069;-79
2023/12/31 10:23:03;;;;;;;2.17;1.77;;;10.10;99.90;;;;;;4967476;28;20465;-80
2023/12/31 10:25:29;;;;;;;4.45;2.15;;;10.20;99.90;;;;;;4968095;28;20077;-80
2023/12/31 10:27:55;;;;;;;1.70;1.40;;;10.20;99.90;;;;;;4976495;28;20133;-81
2023/12/31 10:30:21;;;;;;;2.97;2.05;;;10.30;99.90;;;;;;4938594;28;20369;-81
2023/12/31 10:32:50;;;;;;;2.97;1.92;;;10.30;99.90;;;;;;4953878;28;20042;-82
2023/12/31 10:35:20;;;;;;;3.05;2.20;;;10.30;99.90;;;;;;4969518;28;20043;-82
2023/12/31 10:37:45;;;;;;;3.35;2.70;;;10.30;99.90;;;;;;4937341;28;20540;-82
2023/12/31 10:40:21;;;;;;;2.70;1.85;;;10.40;99.90;;;;;;4989372;28;20040;-82
2023/12/31 10:42:55;;;;;;;2.47;1.83;;;10.40;99.90;;;;;;4936644;28;20113;-81
2023/12/31 10:45:21;;;;;;;3.95;1.60;;;10.30;99.90;;;;;;4954563;28;20045;-82
2023/12/31 10:47:50;;;;;;;3.42;1.35;;;10.40;99.90;;;;;;4951715;28;20038;-81
2023/12/31 10:50:21;;;;;;;3.67;1.30;;;10.50;99.90;;;;;;4958618;28;20037;-81
2023/12/31 10:52:49;;;;;;;3.00;1.75;;;10.50;99.90;;;;;;4964090;28;20050;-81
2023/12/31 10:55:16;;;;;;;1.60;1.50;;;10.40;99.90;;;;;;4950677;28;20044;-82
2023/12/31 10:57:41;;;;;;;1.48;1.15;;;10.50;99.90;;;;;;4954257;28;20514;-81
2023/12/31 11:00:11;;;;;;;2.30;1.90;;;10.50;99.90;;;;;;4950318;28;20034;-81
2023/12/31 11:02:38;;;;;;;2.30;1.85;;;10.50;99.90;;;;;;4954725;28;20042;-81
2023/12/31 11:05:04;;;;;;;1.48;1.05;;;10.50;99.90;;;;;;4970023;28;20042;-80
2023/12/31 11:07:29;;;;;;;1.15;0.95;;;10.50;99.90;;;;;;4954482;28;20440;-81
2023/12/31 11:09:55;;;;;;;1.30;0.73;;;10.60;99.90;;;;;;4936717;28;20041;-81
2023/12/31 11:12:21;;;;;;;2.38;0.88;;;10.60;99.90;;;;;;4954153;28;20041;-82
2023/12/31 11:15:09;;;;;;;2.38;1.17;;;10.60;99.90;;;;;;4952328;28;20390;-80
2023/12/31 11:17:55;;;;;;;1.65;0.85;;;10.60;99.90;;;;;;4953026;28;20108;-80
2023/12/31 11:20:38;;;;;;;1.88;0.85;;;10.60;99.90;;;;;;4944526;28;20432;-81
2023/12/31 11:23:33;;;;;;;2.10;1.35;;;10.60;99.90;;;;;;4986305;28;20049;-80
2023/12/31 11:25:59;;;;;;;0.90;0.57;;;10.60;99.90;;;;;;4954081;28;20034;-80
2023/12/31 11:28:27;;;;;;;0.90;0.70;;;10.60;99.90;;;;;;4952938;28;20122;-79
2023/12/31 11:31:02;;;;;;;3.17;0.40;;;10.60;99.90;;;;;;4937677;28;20452;-80
2023/12/31 11:33:38;;;;;;;2.10;0.60;;;10.60;99.90;;;;;;4938980;28;20397;-79
2023/12/31 11:36:07;;;;;;;0.75;0.38;;;10.50;99.90;;;;;;4951083;28;20466;-80
2023/12/31 11:38:53;;;;;;;1.58;0.60;;;10.50;99.90;;;;;;4970609;28;20750;-79
2023/12/31 11:41:19;;;;;;;2.30;0.60;;;10.50;99.90;;;;;;4967562;28;20046;-80
2023/12/31 11:43:45;;;;;;;0.73;0.45;;;10.50;99.90;;;;;;4951655;28;20035;-80
2023/12/31 11:46:14;;;;;;;1.13;0.60;;;10.60;99.90;;;;;;4967913;28;20027;-79
2023/12/31 11:48:40;;;;;;;1.42;0.47;;;10.40;99.90;;;;;;4939901;28;20038;-79
2023/12/31 11:51:12;;;;;;;0.38;0.20;;;10.40;99.90;;;;;;4950938;28;20424;-78
2023/12/31 11:53:50;;;;;;;1.33;0.40;;;10.40;99.90;;;;;;4963265;28;20185;-79
2023/12/31 11:56:15;;;;;;;2.80;0.52;;;10.30;99.90;;;;;;4982582;28;20108;-79
2023/12/31 11:58:42;;;;;;;0.15;0.10;;;10.30;99.90;;;;;;4937777;28;20476;-78
2023/12/31 12:01:08;;;;;;;0.40;0.20;;;10.20;99.90;;;;;;4937094;28;20905;-79
2023/12/31 12:03:34;;;;;;;1.35;0.40;;;10.20;99.90;;;;;;4966322;28;20524;-81
2023/12/31 12:06:00;;;;;;;1.17;0.30;;;10.20;99.90;;;;;;4932219;28;20019;-78
2023/12/31 12:08:26;;;;;;;0.30;0.10;;;10.10;99.90;;;;;;4932836;28;20029;-78
2023/12/31 12:10:52;;;;;;;0.90;0.30;;;10.10;99.90;;;;;;4979963;28;20031;-79
2023/12/31 12:13:18;;;;;;;2.20;0.32;;;10.10;99.90;;;;;;4967203;28;20069;-78
2023/12/31 12:15:43;;;;;;;0.30;0.13;;;10.00;99.90;;;;;;4964850;28;20081;-81
2023/12/31 12:18:27;;;;;;;1.02;0.40;;;10.00;99.90;;;;;;4951392;28;20045;-80
2023/12/31 12:20:55;;;;;;;0.32;0.20;;;10.00;99.90;;;;;;4965845;28;20030;-81
2023/12/31 12:23:21;;;;;;;0.90;0.40;;;9.90;99.90;;;;;;4965208;28;20030;-80
2023/12/31 12:25:47;;;;;;;1.38;0.30;;;9.90;99.90;;;;;;4947688;28;20042;-78
2023/12/31 12:28:15;;;;;;;0.45;0.30;;;9.80;99.90;;;;;;4955950;28;20504;-78
2023/12/31 12:30:41;;;;;;;0.25;0.20;;;9.80;99.90;;;;;;4980378;28;20042;-78
2023/12/31 12:33:07;;;;;;;2.45;0.10;;;9.80;99.90;;;;;;4965392;28;20045;-78
2023/12/31 12:35:37;;;;;;;1.20;0.25;;;9.70;99.90;;;;;;4948565;28;20509;-78
2023/12/31 12:38:03;;;;;;;0.47;0.28;;;9.70;99.90;;;;;;4974893;28;20600;-80
2023/12/31 12:40:29;;;;;;;0.65;0.32;;;9.60;99.90;;;;;;4956551;28;20035;-80
2023/12/31 12:42:54;;;;;;;0.10;0.10;;;9.50;99.90;;;;;;4950367;28;20389;-80
2023/12/31 12:45:22;;;;;;;0.13;0.10;;;9.60;99.90;;;;;;4966549;28;20034;-79
2023/12/31 12:47:48;;;;;;;3.22;0.22;;;9.50;99.90;;;;;;4964322;28;20053;-80
2023/12/31 12:50:14;;;;;;;0.00;0.00;;;9.50;99.90;;;;;;4584791;28;9999937;-80
2023/12/31 12:52:40;;;;;;;0.52;0.20;;;9.50;99.90;;;;;;4943816;28;20504;-79
2023/12/31 12:55:06;;;;;;;1.25;0.50;;;9.40;99.90;;;;;;4978222;28;20039;-80